Remington, Wisconsin
Current Conditions -  °F | °C
As of 2:04 AM on Saturday 25 Oct 2014 (Local Time) from KISW Reporting Station
Haze Haze  
Wind Chill: 55°   Ceiling: 200
Heat Index: 55°   Visibility: 2mi
Dew Point: 54°   Wind: 9mph
Humidity: 96%   Direction: 260°W
Pressure: 29.87"   Gusts: NA
Location:  44.2909°N, 90.1894°W
Report Text: KISW 250704Z AUTO 26008KT 2SM BR OVC002 13/12 A2987 RMK AO2 T01280122
Loading
Personal Weather Stations






























Interactive Weather Map
Tropical Storm Tracking
New forecast layout! Learn more

10-Day Weather Forecast

Advertisements
Track Severe Weather on mobile